createdAt,value
2023-02-12T00:00:58.327Z,91.16
2023-02-12T00:05:00.913Z,91.19
2023-02-12T00:07:02.055Z,91.19
2023-02-12T00:09:03.562Z,91.19
2023-02-12T00:11:05.230Z,91.14
2023-02-12T00:13:06.329Z,91.12
2023-02-12T00:15:07.702Z,91.23
2023-02-12T00:17:08.817Z,91.27
2023-02-12T00:19:10.212Z,91.34
2023-02-12T00:21:11.489Z,91.39
2023-02-12T00:23:12.526Z,91.32
2023-02-12T00:25:14.173Z,91.32
2023-02-12T00:27:15.869Z,91.6
2023-02-12T00:29:17.764Z,91.62
2023-02-12T00:31:19.816Z,91.52
2023-02-12T00:33:20.736Z,91.4
2023-02-12T00:35:22.119Z,91.23
2023-02-12T00:37:23.340Z,91.21
2023-02-12T00:39:24.390Z,91.23
2023-02-12T00:41:25.455Z,91.21
2023-02-12T00:43:26.901Z,91.15
2023-02-12T00:47:30.175Z,91.07
2023-02-12T00:49:31.318Z,91.1
2023-02-12T00:51:33.015Z,91.09
2023-02-12T00:53:34.738Z,91.11
2023-02-12T00:55:36.048Z,91.18
2023-02-12T00:57:37.443Z,91.31
2023-02-12T00:59:38.631Z,91.4
2023-02-12T01:01:39.674Z,91.5
2023-02-12T01:03:40.720Z,91.48
2023-02-12T01:05:42.228Z,91.47
2023-02-12T01:07:44.163Z,91.34
2023-02-12T01:09:45.838Z,91.93
2023-02-12T01:11:46.941Z,92.07
2023-02-12T01:13:48.388Z,92.19
2023-02-12T01:15:49.976Z,92.24
2023-02-12T01:19:53.090Z,92.35
2023-02-12T01:21:54.651Z,92.27
2023-02-12T01:23:56.221Z,92.32
2023-02-12T01:25:57.681Z,92.31
2023-02-12T01:30:00.651Z,92.19
2023-02-12T01:32:01.999Z,92.21
2023-02-12T01:36:05.207Z,92.02
2023-02-12T01:38:06.829Z,92.01
2023-02-12T01:40:08.695Z,91.97
2023-02-12T01:42:10.337Z,91.84
2023-02-12T01:44:12.185Z,91.79
2023-02-12T01:46:13.963Z,91.79
2023-02-12T01:48:15.083Z,91.86
2023-02-12T01:50:16.786Z,91.97
2023-02-12T01:52:18.425Z,92.11
2023-02-12T01:54:19.785Z,92.17
2023-02-12T01:56:21.158Z,92.14
2023-02-12T01:58:22.538Z,92.06
2023-02-12T02:00:23.610Z,92.1
2023-02-12T02:02:25.332Z,92.15
2023-02-12T02:04:26.969Z,92.2
2023-02-12T02:06:28.129Z,92.29
2023-02-12T02:08:29.295Z,92.21
2023-02-12T02:10:31.239Z,92.34
2023-02-12T02:12:33.049Z,92.51
2023-02-12T02:14:34.991Z,92.49
2023-02-12T02:18:37.465Z,92.58
2023-02-12T02:20:39.423Z,92.73
2023-02-12T02:22:41.177Z,92.74
2023-02-12T02:23:25.080Z,92.75
2023-02-12T02:25:26.123Z,92.91
2023-02-12T02:27:27.440Z,92.95
2023-02-12T02:29:28.440Z,92.91
2023-02-12T02:31:30.225Z,92.82
2023-02-12T02:33:32.018Z,92.77
2023-02-12T02:35:33.682Z,92.77
2023-02-12T02:37:35.587Z,92.78
2023-02-12T02:39:36.672Z,92.74
2023-02-12T02:41:38.295Z,92.7
2023-02-12T02:43:40.174Z,92.73
2023-02-12T02:45:41.320Z,92.33
2023-02-12T02:47:42.454Z,92.03
2023-02-12T02:49:44.173Z,92.21
2023-02-12T02:51:46.055Z,92.22
2023-02-12T02:53:48.068Z,92.41
2023-02-12T02:55:49.986Z,92.64
2023-02-12T02:57:51.682Z,92.73
2023-02-12T02:59:53.236Z,92.79
2023-02-12T03:01:54.470Z,92.78
2023-02-12T03:05:57.421Z,92.82
2023-02-12T03:07:58.563Z,92.8
2023-02-12T03:09:59.817Z,92.83
2023-02-12T03:12:01.645Z,92.84
2023-02-12T03:14:02.665Z,92.9
2023-02-12T03:16:04.542Z,92.93
2023-02-12T03:18:05.785Z,92.98
2023-02-12T03:20:07.455Z,92.95
2023-02-12T03:22:09.089Z,93.13
2023-02-12T03:24:10.286Z,93.17
2023-02-12T03:26:11.492Z,93.03
2023-02-12T03:28:12.662Z,92.93
2023-02-12T03:30:13.633Z,92.84
2023-02-12T03:32:14.772Z,92.89
2023-02-12T03:34:16.013Z,93.01
2023-02-12T03:36:17.991Z,93.13
2023-02-12T03:38:19.055Z,93.17
2023-02-12T03:40:20.594Z,93.26
2023-02-12T03:42:22.305Z,93.3
2023-02-12T03:44:23.834Z,93.24
2023-02-12T03:48:27.428Z,93.11
2023-02-12T03:50:28.479Z,93.08
2023-02-12T03:52:29.779Z,93.08
2023-02-12T03:54:30.794Z,93.13
2023-02-12T03:56:32.554Z,93.29
2023-02-12T03:58:34.515Z,93.24
2023-02-12T04:00:36.381Z,93.15
2023-02-12T04:02:37.740Z,93.06
2023-02-12T04:04:39.417Z,93
2023-02-12T04:06:41.128Z,92.94
2023-02-12T04:08:42.885Z,92.86
2023-02-12T04:10:44.065Z,92.86
2023-02-12T04:12:45.583Z,92.89
2023-02-12T04:14:46.694Z,92.82
2023-02-12T04:16:48.393Z,92.66
2023-02-12T04:20:51.150Z,92.72
2023-02-12T04:22:53.041Z,92.69
2023-02-12T04:24:55.005Z,92.66
2023-02-12T04:26:56.485Z,92.72
2023-02-12T04:30:59.665Z,92.75
2023-02-12T04:33:00.888Z,92.66
2023-02-12T04:35:02.852Z,92.59
2023-02-12T04:37:04.637Z,92.58
2023-02-12T04:39:06.315Z,92.47
2023-02-12T04:41:07.450Z,92.42
2023-02-12T04:43:09.316Z,92.41
2023-02-12T04:45:10.908Z,92.5
2023-02-12T04:47:12.635Z,92.44
2023-02-12T04:49:13.640Z,92.47
2023-02-12T04:51:15.154Z,92.46
2023-02-12T04:53:16.662Z,92.48
2023-02-12T04:55:18.273Z,92.5
2023-02-12T04:57:19.613Z,92.51
2023-02-12T04:59:21.193Z,92.5
2023-02-12T05:03:24.512Z,92.37
2023-02-12T05:05:25.845Z,92.36
2023-02-12T05:07:27.256Z,92.35
2023-02-12T05:09:29.021Z,92.38
2023-02-12T05:13:31.228Z,92.69
2023-02-12T05:15:32.699Z,92.75
2023-02-12T05:17:34.621Z,92.73
2023-02-12T05:19:36.473Z,92.66
2023-02-12T05:21:37.918Z,92.69
2023-02-12T05:23:39.529Z,92.73
2023-02-12T05:25:41.383Z,92.79
2023-02-12T05:27:43.048Z,92.82
2023-02-12T05:29:44.402Z,92.78
2023-02-12T05:31:45.658Z,92.58
2023-02-12T05:33:46.594Z,92.65
2023-02-12T05:35:48.498Z,92.86
2023-02-12T05:37:50.354Z,92.94
2023-02-12T05:39:51.782Z,93.15
2023-02-12T05:41:52.846Z,93.13
2023-02-12T05:43:54.776Z,93.05
2023-02-12T05:45:56.982Z,93.07
2023-02-12T05:47:58.387Z,92.99
2023-02-12T05:49:59.991Z,92.83
2023-02-12T05:52:01.777Z,92.72
2023-02-12T05:56:04.017Z,92.48
2023-02-12T05:58:05.738Z,92.44
2023-02-12T06:02:08.356Z,92.5
2023-02-12T06:04:09.412Z,92.51
2023-02-12T06:06:11.184Z,92.55
2023-02-12T06:08:12.655Z,92.59
2023-02-12T06:12:15.254Z,92.35
2023-02-12T06:14:16.805Z,92.47
2023-02-12T06:16:17.921Z,92.58
2023-02-12T06:18:19.707Z,92.7
2023-02-12T06:20:21.518Z,92.72
2023-02-12T06:22:23.377Z,92.81
2023-02-12T06:24:25.194Z,92.92
2023-02-12T06:26:26.976Z,93
2023-02-12T06:28:28.722Z,93.08
2023-02-12T06:30:30.009Z,93.09
2023-02-12T06:32:31.533Z,92.97
2023-02-12T06:34:33.181Z,92.93
2023-02-12T06:36:35.155Z,92.84
2023-02-12T06:38:36.532Z,92.89
2023-02-12T06:40:38.224Z,93.39
2023-02-12T06:44:40.615Z,93.54
2023-02-12T06:46:42.421Z,93.63
2023-02-12T06:48:43.413Z,93.93
2023-02-12T06:50:45.316Z,93.71
2023-02-12T06:54:48.921Z,93.78
2023-02-12T06:56:50.000Z,93.53
2023-02-12T06:58:51.263Z,93.72
2023-02-12T07:00:52.466Z,93.83
2023-02-12T07:02:53.650Z,93.76
2023-02-12T07:04:54.684Z,93.68
2023-02-12T07:06:55.946Z,93.49
2023-02-12T07:08:57.479Z,93.48
2023-02-12T07:10:59.182Z,93.49
2023-02-12T07:13:00.598Z,93.36
2023-02-12T07:15:01.757Z,93.36
2023-02-12T07:17:03.350Z,93.33
2023-02-12T07:19:04.924Z,93.1
2023-02-12T07:21:06.561Z,93.17
2023-02-12T07:23:07.600Z,93.17
2023-02-12T07:25:09.540Z,93.02
2023-02-12T07:27:11.033Z,92.84
2023-02-12T07:29:12.233Z,92.66
2023-02-12T07:31:13.900Z,92.53
2023-02-12T07:33:15.512Z,92.63
2023-02-12T07:37:18.621Z,92.73
2023-02-12T07:39:20.162Z,92.62
2023-02-12T07:41:21.364Z,92.58
2023-02-12T07:43:22.558Z,92.64
2023-02-12T07:45:23.631Z,92.48
2023-02-12T07:47:25.122Z,92.48
2023-02-12T07:49:26.858Z,92.56
2023-02-12T07:51:28.471Z,92.58
2023-02-12T07:53:30.108Z,92.37
2023-02-12T07:55:31.113Z,92.29
2023-02-12T07:57:32.299Z,92.09
2023-02-12T07:59:34.137Z,92.05
2023-02-12T08:01:35.653Z,92.08
2023-02-12T08:03:36.896Z,91.95
2023-02-12T08:05:38.741Z,91.63
2023-02-12T08:07:40.589Z,91.43
2023-02-12T08:09:42.461Z,91.45
2023-02-12T08:11:43.906Z,91.23
2023-02-12T08:13:45.805Z,91.15
2023-02-12T08:15:47.585Z,91.22
2023-02-12T08:19:50.279Z,90.79
2023-02-12T08:21:51.839Z,90.52
2023-02-12T08:23:53.025Z,90.1
2023-02-12T08:25:54.340Z,90.35
2023-02-12T08:27:55.217Z,90.16
2023-02-12T08:29:56.952Z,89.88
2023-02-12T08:31:58.389Z,89.59
2023-02-12T08:33:59.401Z,89.39
2023-02-12T08:36:01.007Z,89.67
2023-02-12T08:38:01.933Z,89.99
2023-02-12T08:40:03.328Z,90.22
2023-02-12T08:42:04.817Z,90.45
2023-02-12T08:44:05.876Z,90.45
2023-02-12T08:46:07.734Z,90.51
2023-02-12T08:48:09.145Z,90.67
2023-02-12T08:52:12.055Z,90.26
2023-02-12T08:54:13.128Z,90.24
2023-02-12T08:56:14.871Z,89.95
2023-02-12T08:58:16.260Z,89.55
2023-02-12T09:02:18.766Z,88.71
2023-02-12T09:04:19.976Z,88.85
2023-02-12T09:06:21.631Z,88.94
2023-02-12T09:08:22.985Z,89.03
2023-02-12T09:09:06.823Z,88.78
2023-02-12T09:11:08.387Z,88.09
2023-02-12T09:13:09.537Z,88.19
2023-02-12T09:15:11.064Z,87.44
2023-02-12T09:17:12.236Z,87.2
2023-02-12T09:19:13.602Z,86.48
2023-02-12T09:21:15.262Z,86.59
2023-02-12T09:23:16.890Z,85.1
2023-02-12T09:25:18.328Z,84.55
2023-02-12T09:27:19.233Z,85.27
2023-02-12T09:29:20.595Z,83.62
2023-02-12T09:31:22.521Z,82.75
2023-02-12T09:33:23.494Z,82.9
2023-02-12T09:35:25.108Z,82.71
2023-02-12T09:37:26.132Z,83.38
2023-02-12T09:39:27.817Z,83.68
2023-02-12T09:41:29.492Z,84.05
2023-02-12T09:45:31.980Z,84.39
2023-02-12T09:47:33.457Z,85.6
2023-02-12T09:49:34.689Z,83.93
2023-02-12T09:51:35.819Z,83.74
2023-02-12T09:55:39.764Z,83.7
2023-02-12T09:57:40.731Z,82.07
2023-02-12T09:59:42.552Z,82.99
2023-02-12T10:01:44.291Z,82.58
2023-02-12T10:03:46.116Z,83.14
2023-02-12T10:05:47.221Z,82.69
2023-02-12T10:07:48.041Z,82.74
2023-02-12T10:09:49.456Z,81.95
2023-02-12T10:11:50.589Z,81.17
2023-02-12T10:13:52.708Z,81.18
2023-02-12T10:15:54.721Z,82.14
2023-02-12T10:17:55.847Z,81.06
2023-02-12T10:19:56.897Z,79.39
2023-02-12T10:21:58.461Z,80.18
2023-02-12T10:24:00.145Z,80.34
2023-02-12T10:26:01.829Z,81.2
2023-02-12T10:28:03.106Z,80.27
2023-02-12T10:30:04.728Z,79.86
2023-02-12T10:32:05.747Z,79.09
2023-02-12T10:34:07.076Z,77.43
2023-02-12T10:38:09.829Z,77.43
2023-02-12T10:40:10.861Z,77.37
2023-02-12T10:42:12.668Z,76.65
2023-02-12T10:44:15.189Z,78.45
2023-02-12T10:46:16.645Z,78.78
2023-02-12T10:48:20.486Z,80.18
2023-02-12T10:50:19.603Z,80.49
2023-02-12T10:52:21.130Z,80.26
2023-02-12T10:54:22.324Z,77.96
2023-02-12T10:56:23.562Z,77.13
2023-02-12T10:58:25.150Z,77.44
2023-02-12T11:00:26.107Z,76.75
2023-02-12T11:02:27.293Z,75.71
2023-02-12T11:04:28.470Z,75.91
2023-02-12T11:06:29.809Z,75.46
2023-02-12T11:10:32.371Z,77.84
2023-02-12T11:12:33.476Z,76.21
2023-02-12T11:14:34.818Z,76.31
2023-02-12T11:16:36.441Z,77.23
2023-02-12T11:18:38.394Z,76.89
2023-02-12T11:20:39.485Z,76.89
2023-02-12T11:22:40.849Z,77.45
2023-02-12T11:24:42.259Z,77.94
2023-02-12T11:26:44.073Z,79.14
2023-02-12T11:28:45.573Z,79.05
2023-02-12T11:30:46.912Z,77.82
2023-02-12T11:32:48.536Z,77.47
2023-02-12T11:34:50.338Z,79.18
2023-02-12T11:36:51.282Z,80.86
2023-02-12T11:38:53.112Z,80.25
2023-02-12T11:40:54.931Z,80.4
2023-02-12T11:42:56.397Z,80.82
2023-02-12T11:44:58.032Z,81.12
2023-02-12T11:46:59.362Z,81.3
2023-02-12T11:49:00.460Z,81.17
2023-02-12T11:53:03.670Z,80.87
2023-02-12T11:55:14.331Z,81.33
2023-02-12T11:57:06.751Z,81.14
2023-02-12T11:59:07.947Z,81.69
2023-02-12T12:01:09.759Z,81.82
2023-02-12T12:03:11.341Z,81.82
2023-02-12T12:05:12.637Z,81.42
2023-02-12T12:07:14.049Z,80.32
2023-02-12T12:09:15.207Z,81.06
2023-02-12T12:11:16.958Z,81.14
2023-02-12T12:13:18.373Z,80.56
2023-02-12T12:15:19.495Z,80.99
2023-02-12T12:17:21.175Z,81.02
2023-02-12T12:19:22.862Z,80.79
2023-02-12T12:21:24.389Z,81.22
2023-02-12T12:25:27.416Z,81.25
2023-02-12T12:27:28.680Z,81.23
2023-02-12T12:29:29.853Z,80.67
2023-02-12T12:31:31.306Z,80.98
2023-02-12T12:35:33.459Z,80.84
2023-02-12T12:37:34.800Z,81.19
2023-02-12T12:39:36.099Z,81.52
2023-02-12T12:41:37.655Z,81.85
2023-02-12T12:43:39.329Z,81.6
2023-02-12T12:45:41.395Z,82.18
2023-02-12T12:47:43.350Z,81.92
2023-02-12T12:49:45.045Z,83.08
2023-02-12T12:51:46.425Z,81.6
2023-02-12T12:53:47.600Z,82.04
2023-02-12T12:55:48.800Z,80.91
2023-02-12T12:57:51.323Z,80
2023-02-12T12:59:52.605Z,80.79
2023-02-12T13:01:53.864Z,80.99
2023-02-12T13:03:55.394Z,80.8
2023-02-12T13:05:56.648Z,81.32
2023-02-12T13:07:58.081Z,80.9
2023-02-12T13:09:59.078Z,79.85
2023-02-12T13:12:00.651Z,79.86
2023-02-12T13:14:02.012Z,79.54
2023-02-12T13:18:04.823Z,80.51
2023-02-12T13:20:05.799Z,79.9
2023-02-12T13:24:08.654Z,80.61
2023-02-12T13:26:10.663Z,79.16
2023-02-12T13:28:12.130Z,78.72
2023-02-12T13:30:13.235Z,79.82
2023-02-12T13:32:14.183Z,78.23
2023-02-12T13:34:15.084Z,79.02
2023-02-12T13:36:16.376Z,77.49
2023-02-12T13:38:18.093Z,79.02
2023-02-12T13:40:19.893Z,78.35
2023-02-12T13:42:21.102Z,79.75
2023-02-12T13:44:22.344Z,79.66
2023-02-12T13:46:23.472Z,80.42
2023-02-12T13:48:25.257Z,80.26
2023-02-12T13:50:26.247Z,80.02
2023-02-12T13:52:27.922Z,80.21
2023-02-12T13:54:29.264Z,80.57
2023-02-12T13:56:30.589Z,80.8
2023-02-12T13:58:31.859Z,80.22
2023-02-12T14:00:33.194Z,80.19
2023-02-12T14:02:35.444Z,78.82
2023-02-12T14:04:36.893Z,80.4
2023-02-12T14:06:37.788Z,80.79
2023-02-12T14:08:39.072Z,79.1
2023-02-12T14:10:40.826Z,80.23
2023-02-12T14:12:42.716Z,78.19
2023-02-12T14:16:44.999Z,81.81
2023-02-12T14:18:46.745Z,82.36
2023-02-12T14:20:48.431Z,81.64
2023-02-12T14:22:50.040Z,81.94
2023-02-12T14:24:51.426Z,81.43
2023-02-12T14:26:53.122Z,80.23
2023-02-12T14:28:54.314Z,80.68
2023-02-12T14:30:55.811Z,80.41
2023-02-12T14:32:57.169Z,81.35
2023-02-12T14:34:58.492Z,80.5
2023-02-12T14:37:00.309Z,80.78
2023-02-12T14:39:01.836Z,81.97
2023-02-12T14:41:03.665Z,82.38
2023-02-12T14:43:05.086Z,82.38
2023-02-12T14:45:06.469Z,82.52
2023-02-12T14:47:07.929Z,81.43
2023-02-12T14:49:09.407Z,82.06
2023-02-12T14:51:10.710Z,82.41
2023-02-12T14:53:11.895Z,83
2023-02-12T14:55:12.811Z,83.12
2023-02-12T14:59:15.270Z,82.47
2023-02-12T15:01:16.828Z,82.01
2023-02-12T15:03:18.267Z,81.37
2023-02-12T15:05:19.950Z,81.83
2023-02-12T15:07:21.031Z,81.92
2023-02-12T15:09:22.084Z,81.78
2023-02-12T15:11:23.190Z,82.25
2023-02-12T15:13:24.591Z,82.36
2023-02-12T15:15:26.177Z,82.83
2023-02-12T15:17:27.566Z,82.36
2023-02-12T15:19:28.779Z,82.9
2023-02-12T15:21:30.070Z,83.07
2023-02-12T15:23:31.045Z,82.82
2023-02-12T15:25:32.264Z,83.25
2023-02-12T15:27:34.161Z,83.26
2023-02-12T15:31:36.851Z,83.52
2023-02-12T15:33:38.389Z,83.58
2023-02-12T15:35:40.218Z,83.98
2023-02-12T15:37:41.350Z,84.25
2023-02-12T15:39:42.398Z,84.51
2023-02-12T15:41:43.377Z,84.99
2023-02-12T15:43:44.990Z,84.66
2023-02-12T15:47:48.385Z,84.71
2023-02-12T15:49:50.178Z,84.78
2023-02-12T15:51:51.228Z,84.92
2023-02-12T15:53:52.218Z,84.75
2023-02-12T15:56:37.388Z,84.72
2023-02-12T15:58:38.880Z,84.09
2023-02-12T16:00:40.683Z,84.69
2023-02-12T16:02:42.247Z,84.72
2023-02-12T16:04:43.205Z,84.82
2023-02-12T16:06:44.520Z,84.99
2023-02-12T16:08:46.225Z,85.16
2023-02-12T16:10:48.005Z,85.29
2023-02-12T16:12:49.529Z,85.46
2023-02-12T16:14:50.829Z,85.28
2023-02-12T16:16:52.592Z,85.43
2023-02-12T16:18:54.426Z,85.65
2023-02-12T16:20:55.617Z,85.82
2023-02-12T16:22:56.873Z,85.86
2023-02-12T16:24:58.644Z,85.89
2023-02-12T16:27:00.525Z,86.08
2023-02-12T16:29:01.782Z,85.88
2023-02-12T16:31:02.976Z,85.85
2023-02-12T16:33:04.177Z,85.99
2023-02-12T16:35:05.730Z,85.98
2023-02-12T16:37:06.745Z,86.21
2023-02-12T16:39:08.688Z,86.37
2023-02-12T16:41:09.699Z,86.56
2023-02-12T16:43:11.595Z,86.63
2023-02-12T16:45:12.732Z,86.89
2023-02-12T16:47:14.049Z,86.99
2023-02-12T16:49:15.672Z,86.99
2023-02-12T16:51:17.067Z,87.06
2023-02-12T16:53:18.181Z,87.32
2023-02-12T16:55:19.461Z,87.26
2023-02-12T16:57:21.201Z,87.45
2023-02-12T16:59:22.209Z,87.71
2023-02-12T17:01:23.694Z,87.89
2023-02-12T17:03:25.413Z,87.84
2023-02-12T17:05:26.794Z,87.88
2023-02-12T17:07:28.029Z,87.71
2023-02-12T17:09:29.869Z,87.92
2023-02-12T17:11:31.533Z,88.14
2023-02-12T17:13:32.792Z,88.18
2023-02-12T17:17:34.946Z,88.43
2023-02-12T17:19:36.363Z,88.75
2023-02-12T17:21:37.512Z,88.92
2023-02-12T17:23:39.993Z,88.98
2023-02-12T17:25:39.826Z,89.26
2023-02-12T17:27:41.096Z,89.08
2023-02-12T17:29:42.349Z,89.01
2023-02-12T17:31:44.270Z,89.5
2023-02-12T17:33:45.733Z,89.29
2023-02-12T17:35:46.702Z,89.6
2023-02-12T17:37:47.835Z,90.01
2023-02-12T17:39:48.823Z,90.14
2023-02-12T17:41:50.604Z,90.2
2023-02-12T17:43:52.151Z,90.44
2023-02-12T17:45:53.651Z,90.33
2023-02-12T17:47:54.773Z,90.87
2023-02-12T17:49:55.854Z,90.55
2023-02-12T17:51:57.617Z,91.21
2023-02-12T17:53:58.777Z,91.29
2023-02-12T17:56:00.600Z,91.4
2023-02-12T17:58:02.174Z,91.54
2023-02-12T18:00:03.200Z,92.01
2023-02-12T18:02:04.760Z,92.28
2023-02-12T18:06:07.912Z,92.85
2023-02-12T18:08:09.028Z,92.74
2023-02-12T18:10:11.563Z,93.36
2023-02-12T18:12:12.467Z,93.62
2023-02-12T18:16:15.330Z,93.83
2023-02-12T18:18:16.470Z,93.53
2023-02-12T18:20:18.300Z,93.48
2023-02-12T18:22:19.595Z,93.37
2023-02-12T18:24:21.534Z,93.58
2023-02-12T18:26:22.970Z,94
2023-02-12T18:28:24.174Z,94.1
2023-02-12T18:30:25.667Z,93.83
2023-02-12T18:32:27.432Z,93.78
2023-02-12T18:34:28.945Z,93.73
2023-02-12T18:36:29.956Z,93.74
2023-02-12T18:38:31.753Z,93.71
2023-02-12T18:40:33.675Z,93.7
2023-02-12T18:42:35.733Z,95.05
2023-02-12T18:44:36.110Z,95.5
2023-02-12T18:46:37.400Z,95.73
2023-02-12T18:48:39.154Z,95.72
2023-02-12T18:50:40.837Z,95.66
2023-02-12T18:52:42.684Z,96.39
2023-02-12T18:54:44.629Z,96.21
2023-02-12T18:58:47.876Z,96.13
2023-02-12T19:00:49.428Z,96.06
2023-02-12T19:02:50.485Z,95.82
2023-02-12T19:04:52.245Z,95.74
2023-02-12T19:06:53.336Z,95.49
2023-02-12T19:08:54.474Z,95.11
2023-02-12T19:10:55.645Z,94.99
2023-02-12T19:12:56.724Z,94.72
2023-02-12T19:14:58.353Z,94.7
2023-02-12T19:17:00.314Z,94.72
2023-02-12T19:19:02.031Z,94.8
2023-02-12T19:21:03.254Z,94.75
2023-02-12T19:25:05.540Z,94.74
2023-02-12T19:27:07.180Z,94.78
2023-02-12T19:29:08.573Z,94.83
2023-02-12T19:31:09.968Z,94.86
2023-02-12T19:33:11.123Z,94.88
2023-02-12T19:35:13.084Z,94.9
2023-02-12T19:37:14.919Z,95.04
2023-02-12T19:39:16.106Z,95.1
2023-02-12T19:41:17.149Z,95.04
2023-02-12T19:43:18.202Z,95.08
2023-02-12T19:45:20.066Z,94.94
2023-02-12T19:47:21.929Z,94.98
2023-02-12T19:49:23.266Z,94.99
2023-02-12T19:51:25.072Z,94.96
2023-02-12T19:53:26.090Z,94.82
2023-02-12T19:55:27.783Z,94.81
2023-02-12T19:57:29.571Z,94.87
2023-02-12T19:59:31.098Z,94.86
2023-02-12T20:01:32.852Z,94.83
2023-02-12T20:03:34.619Z,94.92
2023-02-12T20:05:35.895Z,94.82
2023-02-12T20:07:37.265Z,94.74
2023-02-12T20:09:39.157Z,94.73
2023-02-12T20:11:40.927Z,94.66
2023-02-12T20:13:42.852Z,94.61
2023-02-12T20:15:44.130Z,94.57
2023-02-12T20:17:46.035Z,94.66
2023-02-12T20:19:47.846Z,94.83
2023-02-12T20:23:51.361Z,94.79
2023-02-12T20:25:52.493Z,94.87
2023-02-12T20:27:53.847Z,94.83
2023-02-12T20:29:55.123Z,94.75
2023-02-12T20:31:56.675Z,94.84
2023-02-12T20:33:57.892Z,94.96
2023-02-12T20:35:58.900Z,94.96
2023-02-12T20:37:59.911Z,94.98
2023-02-12T20:40:01.396Z,94.92
2023-02-12T20:42:02.517Z,94.94
2023-02-12T20:44:03.921Z,94.98
2023-02-12T20:46:05.130Z,94.95
2023-02-12T20:48:07.001Z,94.97
2023-02-12T20:50:08.618Z,95.04
2023-02-12T20:52:09.940Z,95.02
2023-02-12T20:56:12.887Z,95.18
2023-02-12T20:58:13.968Z,95.17
2023-02-12T21:00:15.920Z,95.3
2023-02-12T21:02:17.344Z,95.4
2023-02-12T21:06:19.906Z,95.5
2023-02-12T21:08:21.581Z,95.58
2023-02-12T21:10:23.513Z,95.57
2023-02-12T21:12:25.206Z,95.6
2023-02-12T21:14:26.849Z,95.61
2023-02-12T21:16:28.835Z,95.62
2023-02-12T21:18:30.304Z,95.67
2023-02-12T21:20:32.057Z,95.68
2023-02-12T21:22:33.114Z,95.74
2023-02-12T21:24:34.234Z,95.78
2023-02-12T21:26:35.301Z,95.87
2023-02-12T21:28:36.680Z,95.92
2023-02-12T21:30:37.740Z,96.01
2023-02-12T21:32:39.577Z,96.12
2023-02-12T21:34:40.849Z,96.21
2023-02-12T21:36:42.102Z,96.3
2023-02-12T21:38:43.864Z,96.4
2023-02-12T21:40:45.226Z,96.52
2023-02-12T21:42:46.390Z,96.54
2023-02-12T21:44:47.812Z,96.62
2023-02-12T21:46:49.071Z,96.67
2023-02-12T21:48:50.214Z,96.69
2023-02-12T21:50:51.417Z,96.73
2023-02-12T21:52:52.771Z,96.74
2023-02-12T21:54:54.252Z,96.81
2023-02-12T21:56:56.205Z,96.82
2023-02-12T21:58:57.571Z,96.86
2023-02-12T22:00:59.216Z,96.88
2023-02-12T22:05:01.884Z,96.98
2023-02-12T22:07:03.897Z,96.98
2023-02-12T22:09:04.883Z,96.98
2023-02-12T22:11:06.175Z,97
2023-02-12T22:13:07.714Z,97.03
2023-02-12T22:15:09.240Z,97.03
2023-02-12T22:17:10.899Z,97.1
2023-02-12T22:19:12.871Z,97.13
2023-02-12T22:21:14.387Z,97.18
2023-02-12T22:23:16.160Z,97.2
2023-02-12T22:25:17.241Z,97.22
2023-02-12T22:27:18.446Z,97.28
2023-02-12T22:29:19.531Z,97.3
2023-02-12T22:31:21.003Z,97.35
2023-02-12T22:33:22.409Z,97.38
2023-02-12T22:35:32.579Z,97.46
2023-02-12T22:37:25.353Z,97.46
2023-02-12T22:39:26.431Z,97.48
2023-02-12T22:42:11.986Z,97.49
2023-02-12T22:44:13.816Z,97.54
2023-02-12T22:46:15.020Z,97.54
2023-02-12T22:48:16.108Z,97.55
2023-02-12T22:50:17.755Z,97.58
2023-02-12T22:52:19.007Z,97.59
2023-02-12T22:54:20.679Z,97.61
2023-02-12T22:56:22.616Z,97.65
2023-02-12T22:58:24.155Z,97.68
2023-02-12T23:00:25.873Z,97.66
2023-02-12T23:02:27.763Z,97.69
2023-02-12T23:04:28.960Z,97.7
2023-02-12T23:06:30.874Z,97.68
2023-02-12T23:08:32.741Z,97.71
2023-02-12T23:10:33.809Z,97.75
2023-02-12T23:14:36.252Z,97.78
2023-02-12T23:16:37.645Z,97.82
2023-02-12T23:18:39.149Z,97.86
2023-02-12T23:20:40.957Z,97.9
2023-02-12T23:24:44.078Z,97.94
2023-02-12T23:26:45.459Z,97.94
2023-02-12T23:28:47.415Z,97.94
2023-02-12T23:30:48.685Z,97.95
2023-02-12T23:32:49.850Z,97.9
2023-02-12T23:34:51.472Z,97.89
2023-02-12T23:36:52.816Z,97.88
2023-02-12T23:38:54.654Z,97.85
2023-02-12T23:40:56.811Z,97.84
2023-02-12T23:42:57.904Z,97.85
2023-02-12T23:44:59.822Z,97.86
2023-02-12T23:47:01.012Z,97.85
2023-02-12T23:49:02.654Z,97.87
2023-02-12T23:51:04.221Z,97.89
2023-02-12T23:53:05.986Z,97.91
2023-02-12T23:55:07.559Z,97.92
2023-02-12T23:57:09.073Z,97.94
2023-02-12T23:59:10.823Z,97.96
